Zenken Maru — JG5556 — position and weather

sailwx.info

Track history (hours):
 
Tides and Currents Weather Stations Pressure Air Temp Water Temp Dewpoint Dewpoint Depression Visibility Wind Speed Wind Dir Waves Ship Positions

Zenken Maru

Last reported at 2015-Jul-02 16:32 UTC. Time now 2015-Jul-02 16:35 UTC.
Position N 35°21' E 139°41'.

Length 98 m; draft 7.2 m.

Type: Cargo ship. MMSI: 431100955.

Date/timePositionNaut miles runAvg speedWind from/ knotsBaromVisibWave heightAir tempDewpointWater temp
2015-Jul-02 16:32N 35°21' E 139°41'0 0.0
2015-Jul-02 15:32N 35°21' E 139°41'0 0.0
2015-Jul-02 14:29N 35°21' E 139°41'0 0.1
2015-Jul-02 13:32N 35°21' E 139°41'0 0.0
2015-Jul-02 12:32N 35°21' E 139°41'0 0.0
2015-Jul-02 11:32N 35°21' E 139°41'0 0.1
2015-Jul-02 10:32N 35°21' E 139°41'0 0.0
2015-Jul-02 09:32N 35°21' E 139°41'0 0.1
2015-Jul-02 08:32N 35°21' E 139°41'0 0.0
2015-Jul-02 07:32N 35°21' E 139°41'0 0.0
2015-Jul-02 06:32N 35°21' E 139°41'0 0.0
2015-Jul-02 05:32N 35°21' E 139°41'0 0.1
2015-Jul-02 04:32N 35°21' E 139°41'0 0.1
2015-Jul-02 03:32N 35°21' E 139°41'0 0.0
2015-Jul-02 02:32N 35°21' E 139°41'0 0.0
2015-Jul-02 01:29N 35°21' E 139°41'0 0.0
2015-Jul-02 00:32N 35°21' E 139°41'0 0.0
2015-Jul-01 23:29N 35°21' E 139°41'0 0.0
2015-Jul-01 22:26N 35°21' E 139°41'0 0.0
2015-Jul-01 21:26N 35°21' E 139°41'0 0.1
2015-Jul-01 20:26N 35°21' E 139°41'0 0.0
2015-Jul-01 19:32N 35°21' E 139°41'0 0.0
2015-Jul-01 18:32N 35°21' E 139°41'0 0.0
2015-Jul-01 17:26N 35°21' E 139°41'0 0.0
2015-Jul-01 16:32N 35°21' E 139°41'0 0.1
2015-Jul-01 15:32N 35°21' E 139°41'0 0.1
2015-Jul-01 14:32N 35°21' E 139°41'0 0.0
2015-Jul-01 13:23N 35°21' E 139°41'0 0.0
2015-Jul-01 12:33N 35°21' E 139°41'0 0.1
2015-Jul-01 11:33N 35°21' E 139°41'0 0.1
2015-Jul-01 10:34N 35°21' E 139°41'0 0.1
2015-Jul-01 09:34N 35°21' E 139°41'0 0.1
2015-Jul-01 08:33N 35°21' E 139°41'0 0.1
2015-Jul-01 07:34N 35°21' E 139°41'0 0.0
2015-Jul-01 06:34N 35°21' E 139°41'0 0.0
2015-Jul-01 05:33N 35°21' E 139°41'0 0.0
2015-Jul-01 04:34N 35°21' E 139°41'3 2.9
2015-Jul-01 03:33N 35°23' E 139°39'0 0.0
2015-Jul-01 02:29N 35°23' E 139°39'0 0.0
2015-Jul-01 01:08N 35°23' E 139°39'0 0.0
2015-Jul-01 00:23N 35°23' E 139°39'0 0.0
2015-Jun-30 23:32N 35°23' E 139°39'0 0.4
2015-Jun-30 22:33N 35°23' E 139°39'8 8.1
2015-Jun-30 21:33N 35°17' E 139°45'9 9.0
2015-Jun-30 20:33N 35°08' E 139°45'1110.6
2015-Jun-30 19:33N 34°58' E 139°44'10 9.3
2015-Jun-30 18:32N 34°49' E 139°48'8 7.5
2015-Jun-30 17:28N 34°42' E 139°53'9 7.6
2015-Jun-30 16:17N 34°34' E 139°58'5 6.5
2015-Jun-30 15:28N 34°29' E 140°00'6 6.2
2015-Jun-30 14:29N 34°23' E 140°04'7 7.8
2015-Jun-30 13:32N 34°17' E 140°08'36 1.2
2015-Jun-29 07:33N 34°49' E 139°48'1010.2
2015-Jun-29 06:32N 34°59' E 139°43'1010.6
2015-Jun-29 05:33N 35°09' E 139°45'1110.7
2015-Jun-29 04:33N 35°20' E 139°43'5 4.7
2015-Jun-29 03:33N 35°23' E 139°39'0 0.0
2015-Jun-29 02:31N 35°23' E 139°39'0 0.0
2015-Jun-29 01:31N 35°23' E 139°39'0 0.0
2015-Jun-29 00:28N 35°23' E 139°39'0 0.0
2015-Jun-28 23:31N 35°23' E 139°39'0 0.3
2015-Jun-28 22:34N 35°23' E 139°39'3 2.7
2015-Jun-28 21:32N 35°21' E 139°41'0 0.0
2015-Jun-28 20:32N 35°21' E 139°41'0 0.0
2015-Jun-28 19:32N 35°21' E 139°41'0 0.0
2015-Jun-28 18:32N 35°21' E 139°41'0 0.0
2015-Jun-28 17:32N 35°21' E 139°41'0 0.0
2015-Jun-28 16:32N 35°21' E 139°41'0 0.0
2015-Jun-28 15:32N 35°21' E 139°41'0 0.0
2015-Jun-28 14:32N 35°21' E 139°41'0 0.1
2015-Jun-28 13:32N 35°21' E 139°41'0 0.0
2015-Jun-28 12:32N 35°21' E 139°41'0 0.0
2015-Jun-28 11:32N 35°21' E 139°41'0 0.0
2015-Jun-28 10:32N 35°21' E 139°41'0 0.0
2015-Jun-28 09:32N 35°21' E 139°41'0 0.0
2015-Jun-28 08:32N 35°21' E 139°41'0 0.0
2015-Jun-28 07:32N 35°21' E 139°41'0 0.1
2015-Jun-28 06:32N 35°21' E 139°41'0 0.1
2015-Jun-28 05:32N 35°21' E 139°41'0 0.0
2015-Jun-28 04:32N 35°21' E 139°41'0 0.0
2015-Jun-28 03:32N 35°21' E 139°41'0 0.0
2015-Jun-28 02:32N 35°21' E 139°41'0 0.0
2015-Jun-28 01:32N 35°21' E 139°41'0 0.0
2015-Jun-28 00:32N 35°21' E 139°41'0 0.1
2015-Jun-27 23:32N 35°21' E 139°41'0 0.1
2015-Jun-27 22:32N 35°21' E 139°41'0 0.0
2015-Jun-27 21:32N 35°21' E 139°41'0 0.0
2015-Jun-27 20:32N 35°21' E 139°41'0 0.0
2015-Jun-27 19:32N 35°21' E 139°41'0 0.0
2015-Jun-27 18:32N 35°21' E 139°41'0 0.0
2015-Jun-27 17:32N 35°21' E 139°41'0 0.0
2015-Jun-27 16:32N 35°21' E 139°41'0 0.0
2015-Jun-27 15:32N 35°21' E 139°41'0 0.0
2015-Jun-27 14:32N 35°21' E 139°41'0 0.0
2015-Jun-27 13:32N 35°21' E 139°41'0 0.0
2015-Jun-27 12:32N 35°21' E 139°41'0 0.0
2015-Jun-27 11:32N 35°21' E 139°41'0 0.0
2015-Jun-27 10:32N 35°21' E 139°41'0 0.1
2015-Jun-27 09:32N 35°21' E 139°41'0 0.0
2015-Jun-27 08:32N 35°21' E 139°41'0 0.1
2015-Jun-27 07:32N 35°21' E 139°41'0 0.0
2015-Jun-27 06:32N 35°21' E 139°41'0 0.0
2015-Jun-27 05:32N 35°21' E 139°41'0 0.0
2015-Jun-27 04:32N 35°21' E 139°41'0 0.0
2015-Jun-27 03:29N 35°21' E 139°41'0 0.1
2015-Jun-27 02:32N 35°21' E 139°41'0 0.0
2015-Jun-27 01:32N 35°21' E 139°41'0 0.0
2015-Jun-27 00:32N 35°21' E 139°41'0 0.0
2015-Jun-26 23:32N 35°21' E 139°41'0 0.0
2015-Jun-26 22:32N 35°21' E 139°41'0 0.0
2015-Jun-26 21:29N 35°21' E 139°41'0 0.0
2015-Jun-26 20:32N 35°21' E 139°41'0 0.0
2015-Jun-26 19:32N 35°21' E 139°41'0 0.0
2015-Jun-26 18:32N 35°21' E 139°41'0 0.0
2015-Jun-26 17:29N 35°21' E 139°41'0 0.0
2015-Jun-26 16:32N 35°21' E 139°41'0 0.0
2015-Jun-26 15:32N 35°21' E 139°41'0 0.1
2015-Jun-26 14:32N 35°21' E 139°41'0 0.0
2015-Jun-26 13:29N 35°21' E 139°41'0 0.0
2015-Jun-26 12:32N 35°21' E 139°41'0 0.0
2015-Jun-26 11:32N 35°21' E 139°41'0 0.0
2015-Jun-26 10:32N 35°21' E 139°41'0 0.0
2015-Jun-26 09:32N 35°21' E 139°41'0 0.0
2015-Jun-26 08:32N 35°21' E 139°41'0 0.0
2015-Jun-26 07:32N 35°21' E 139°41'0 0.0
2015-Jun-26 06:32N 35°21' E 139°41'0 0.0
2015-Jun-26 05:32N 35°21' E 139°41'0 0.0
2015-Jun-26 04:32N 35°21' E 139°41'3 2.7
2015-Jun-26 03:31N 35°23' E 139°39'0 0.0
2015-Jun-26 02:31N 35°23' E 139°39'0 0.0
2015-Jun-26 01:31N 35°23' E 139°39'0 0.0
2015-Jun-26 00:31N 35°23' E 139°39'0 0.0
2015-Jun-25 23:31N 35°23' E 139°39'0 0.3
2015-Jun-25 22:33N 35°23' E 139°39'3 2.8
2015-Jun-25 21:31N 35°21' E 139°41'0 0.0
2015-Jun-25 20:31N 35°21' E 139°41'0 0.0
2015-Jun-25 19:31N 35°21' E 139°41'0 0.0
2015-Jun-25 18:31N 35°21' E 139°41'0 0.0
2015-Jun-25 17:31N 35°21' E 139°41'0 0.0
2015-Jun-25 16:31N 35°21' E 139°41'0 0.0
2015-Jun-25 15:31N 35°21' E 139°41'0 0.0
2015-Jun-25 14:31N 35°21' E 139°41'0 0.0
2015-Jun-25 13:31N 35°21' E 139°41'0 0.1
2015-Jun-25 12:31N 35°21' E 139°41'0 0.0
2015-Jun-25 11:31N 35°21' E 139°41'0 0.0
2015-Jun-25 10:31N 35°21' E 139°41'0 0.0
2015-Jun-25 09:31N 35°21' E 139°41'0 0.0
2015-Jun-25 08:31N 35°21' E 139°41'0 0.0
2015-Jun-25 07:31N 35°21' E 139°41'0 0.0
2015-Jun-25 06:28N 35°21' E 139°41'0 0.1
2015-Jun-25 05:28N 35°21' E 139°41'0 0.0
2015-Jun-25 04:31N 35°21' E 139°41'0 0.0
2015-Jun-25 03:31N 35°21' E 139°41'0 0.0
2015-Jun-25 02:31N 35°21' E 139°41'0 0.0
2015-Jun-25 01:31N 35°21' E 139°41'0 0.1
2015-Jun-25 00:31N 35°21' E 139°41'0 0.0
2015-Jun-24 23:31N 35°21' E 139°41'0 0.0
2015-Jun-24 22:31N 35°21' E 139°41'0 0.0
2015-Jun-24 21:31N 35°21' E 139°41'0 0.0
2015-Jun-24 20:31N 35°21' E 139°41'0 0.0
2015-Jun-24 19:31N 35°21' E 139°41'0 0.0
2015-Jun-24 18:33N 35°21' E 139°41'10 9.9
2015-Jun-24 17:33N 35°12' E 139°47'1212.2
2015-Jun-24 16:33N 35°00' E 139°43'1211.4
2015-Jun-24 15:31N 34°50' E 139°49'1211.1
2015-Jun-24 14:25N 34°38' E 139°55'47 1.1
2015-Jun-22 19:33N 35°23' E 139°39'0 0.0
2015-Jun-22 18:33N 35°23' E 139°39'0 0.0
2015-Jun-22 17:33N 35°23' E 139°39'0 0.0
2015-Jun-22 16:27N 35°23' E 139°39'0 0.0
2015-Jun-22 15:33N 35°23' E 139°39'  
Track history (hours):
 
Tides and Currents Weather Stations Pressure Air Temp Water Temp Dewpoint Dewpoint Depression Visibility Wind Speed Wind Dir Waves Ship Positions

Zenken Maru

Last reported at 2015-Jul-02 16:32 UTC. Time now 2015-Jul-02 16:35 UTC.
Position N 35°21' E 139°41'.

Length 98 m; draft 7.2 m.

Type: Cargo ship. MMSI: 431100955.

Date/timePositionNaut miles runAvg speedWind from/ knotsBaromVisibWave heightAir tempDewpointWater temp
2015-Jul-02 16:32N 35°21' E 139°41'0 0.0
2015-Jul-02 15:32N 35°21' E 139°41'0 0.0
2015-Jul-02 14:29N 35°21' E 139°41'0 0.1
2015-Jul-02 13:32N 35°21' E 139°41'0 0.0
2015-Jul-02 12:32N 35°21' E 139°41'0 0.0
2015-Jul-02 11:32N 35°21' E 139°41'0 0.1
2015-Jul-02 10:32N 35°21' E 139°41'0 0.0
2015-Jul-02 09:32N 35°21' E 139°41'0 0.1
2015-Jul-02 08:32N 35°21' E 139°41'0 0.0
2015-Jul-02 07:32N 35°21' E 139°41'0 0.0
2015-Jul-02 06:32N 35°21' E 139°41'0 0.0
2015-Jul-02 05:32N 35°21' E 139°41'0 0.1
2015-Jul-02 04:32N 35°21' E 139°41'0 0.1
2015-Jul-02 03:32N 35°21' E 139°41'0 0.0
2015-Jul-02 02:32N 35°21' E 139°41'0 0.0
2015-Jul-02 01:29N 35°21' E 139°41'0 0.0
2015-Jul-02 00:32N 35°21' E 139°41'0 0.0
2015-Jul-01 23:29N 35°21' E 139°41'0 0.0
2015-Jul-01 22:26N 35°21' E 139°41'0 0.0
2015-Jul-01 21:26N 35°21' E 139°41'0 0.1
2015-Jul-01 20:26N 35°21' E 139°41'0 0.0
2015-Jul-01 19:32N 35°21' E 139°41'0 0.0
2015-Jul-01 18:32N 35°21' E 139°41'0 0.0
2015-Jul-01 17:26N 35°21' E 139°41'0 0.0
2015-Jul-01 16:32N 35°21' E 139°41'0 0.1
2015-Jul-01 15:32N 35°21' E 139°41'0 0.1
2015-Jul-01 14:32N 35°21' E 139°41'0 0.0
2015-Jul-01 13:23N 35°21' E 139°41'0 0.0
2015-Jul-01 12:33N 35°21' E 139°41'0 0.1
2015-Jul-01 11:33N 35°21' E 139°41'0 0.1
2015-Jul-01 10:34N 35°21' E 139°41'0 0.1
2015-Jul-01 09:34N 35°21' E 139°41'0 0.1
2015-Jul-01 08:33N 35°21' E 139°41'0 0.1
2015-Jul-01 07:34N 35°21' E 139°41'0 0.0
2015-Jul-01 06:34N 35°21' E 139°41'0 0.0
2015-Jul-01 05:33N 35°21' E 139°41'0 0.0
2015-Jul-01 04:34N 35°21' E 139°41'3 2.9
2015-Jul-01 03:33N 35°23' E 139°39'0 0.0
2015-Jul-01 02:29N 35°23' E 139°39'0 0.0
2015-Jul-01 01:08N 35°23' E 139°39'0 0.0
2015-Jul-01 00:23N 35°23' E 139°39'0 0.0
2015-Jun-30 23:32N 35°23' E 139°39'0 0.4
2015-Jun-30 22:33N 35°23' E 139°39'8 8.1
2015-Jun-30 21:33N 35°17' E 139°45'9 9.0
2015-Jun-30 20:33N 35°08' E 139°45'1110.6
2015-Jun-30 19:33N 34°58' E 139°44'10 9.3
2015-Jun-30 18:32N 34°49' E 139°48'8 7.5
2015-Jun-30 17:28N 34°42' E 139°53'9 7.6
2015-Jun-30 16:17N 34°34' E 139°58'5 6.5
2015-Jun-30 15:28N 34°29' E 140°00'6 6.2
2015-Jun-30 14:29N 34°23' E 140°04'7 7.8
2015-Jun-30 13:32N 34°17' E 140°08'36 1.2
2015-Jun-29 07:33N 34°49' E 139°48'1010.2
2015-Jun-29 06:32N 34°59' E 139°43'1010.6
2015-Jun-29 05:33N 35°09' E 139°45'1110.7
2015-Jun-29 04:33N 35°20' E 139°43'5 4.7
2015-Jun-29 03:33N 35°23' E 139°39'0 0.0
2015-Jun-29 02:31N 35°23' E 139°39'0 0.0
2015-Jun-29 01:31N 35°23' E 139°39'0 0.0
2015-Jun-29 00:28N 35°23' E 139°39'0 0.0
2015-Jun-28 23:31N 35°23' E 139°39'0 0.3
2015-Jun-28 22:34N 35°23' E 139°39'3 2.7
2015-Jun-28 21:32N 35°21' E 139°41'0 0.0
2015-Jun-28 20:32N 35°21' E 139°41'0 0.0
2015-Jun-28 19:32N 35°21' E 139°41'0 0.0
2015-Jun-28 18:32N 35°21' E 139°41'0 0.0
2015-Jun-28 17:32N 35°21' E 139°41'0 0.0
2015-Jun-28 16:32N 35°21' E 139°41'0 0.0
2015-Jun-28 15:32N 35°21' E 139°41'0 0.0
2015-Jun-28 14:32N 35°21' E 139°41'0 0.1
2015-Jun-28 13:32N 35°21' E 139°41'0 0.0
2015-Jun-28 12:32N 35°21' E 139°41'0 0.0
2015-Jun-28 11:32N 35°21' E 139°41'0 0.0
2015-Jun-28 10:32N 35°21' E 139°41'0 0.0
2015-Jun-28 09:32N 35°21' E 139°41'0 0.0
2015-Jun-28 08:32N 35°21' E 139°41'0 0.0
2015-Jun-28 07:32N 35°21' E 139°41'0 0.1
2015-Jun-28 06:32N 35°21' E 139°41'0 0.1
2015-Jun-28 05:32N 35°21' E 139°41'0 0.0
2015-Jun-28 04:32N 35°21' E 139°41'0 0.0
2015-Jun-28 03:32N 35°21' E 139°41'0 0.0
2015-Jun-28 02:32N 35°21' E 139°41'0 0.0
2015-Jun-28 01:32N 35°21' E 139°41'0 0.0
2015-Jun-28 00:32N 35°21' E 139°41'0 0.1
2015-Jun-27 23:32N 35°21' E 139°41'0 0.1
2015-Jun-27 22:32N 35°21' E 139°41'0 0.0
2015-Jun-27 21:32N 35°21' E 139°41'0 0.0
2015-Jun-27 20:32N 35°21' E 139°41'0 0.0
2015-Jun-27 19:32N 35°21' E 139°41'0 0.0
2015-Jun-27 18:32N 35°21' E 139°41'0 0.0
2015-Jun-27 17:32N 35°21' E 139°41'0 0.0
2015-Jun-27 16:32N 35°21' E 139°41'0 0.0
2015-Jun-27 15:32N 35°21' E 139°41'0 0.0
2015-Jun-27 14:32N 35°21' E 139°41'0 0.0
2015-Jun-27 13:32N 35°21' E 139°41'0 0.0
2015-Jun-27 12:32N 35°21' E 139°41'0 0.0
2015-Jun-27 11:32N 35°21' E 139°41'0 0.0
2015-Jun-27 10:32N 35°21' E 139°41'0 0.1
2015-Jun-27 09:32N 35°21' E 139°41'0 0.0
2015-Jun-27 08:32N 35°21' E 139°41'0 0.1
2015-Jun-27 07:32N 35°21' E 139°41'0 0.0
2015-Jun-27 06:32N 35°21' E 139°41'0 0.0
2015-Jun-27 05:32N 35°21' E 139°41'0 0.0
2015-Jun-27 04:32N 35°21' E 139°41'0 0.0
2015-Jun-27 03:29N 35°21' E 139°41'0 0.1
2015-Jun-27 02:32N 35°21' E 139°41'0 0.0
2015-Jun-27 01:32N 35°21' E 139°41'0 0.0
2015-Jun-27 00:32N 35°21' E 139°41'0 0.0
2015-Jun-26 23:32N 35°21' E 139°41'0 0.0
2015-Jun-26 22:32N 35°21' E 139°41'0 0.0
2015-Jun-26 21:29N 35°21' E 139°41'0 0.0
2015-Jun-26 20:32N 35°21' E 139°41'0 0.0
2015-Jun-26 19:32N 35°21' E 139°41'0 0.0
2015-Jun-26 18:32N 35°21' E 139°41'0 0.0
2015-Jun-26 17:29N 35°21' E 139°41'0 0.0
2015-Jun-26 16:32N 35°21' E 139°41'0 0.0
2015-Jun-26 15:32N 35°21' E 139°41'0 0.1
2015-Jun-26 14:32N 35°21' E 139°41'0 0.0
2015-Jun-26 13:29N 35°21' E 139°41'0 0.0
2015-Jun-26 12:32N 35°21' E 139°41'0 0.0
2015-Jun-26 11:32N 35°21' E 139°41'0 0.0
2015-Jun-26 10:32N 35°21' E 139°41'0 0.0
2015-Jun-26 09:32N 35°21' E 139°41'0 0.0
2015-Jun-26 08:32N 35°21' E 139°41'0 0.0
2015-Jun-26 07:32N 35°21' E 139°41'0 0.0
2015-Jun-26 06:32N 35°21' E 139°41'0 0.0
2015-Jun-26 05:32N 35°21' E 139°41'0 0.0
2015-Jun-26 04:32N 35°21' E 139°41'3 2.7
2015-Jun-26 03:31N 35°23' E 139°39'0 0.0
2015-Jun-26 02:31N 35°23' E 139°39'0 0.0
2015-Jun-26 01:31N 35°23' E 139°39'0 0.0
2015-Jun-26 00:31N 35°23' E 139°39'0 0.0
2015-Jun-25 23:31N 35°23' E 139°39'0 0.3
2015-Jun-25 22:33N 35°23' E 139°39'3 2.8
2015-Jun-25 21:31N 35°21' E 139°41'0 0.0
2015-Jun-25 20:31N 35°21' E 139°41'0 0.0
2015-Jun-25 19:31N 35°21' E 139°41'0 0.0
2015-Jun-25 18:31N 35°21' E 139°41'0 0.0
2015-Jun-25 17:31N 35°21' E 139°41'0 0.0
2015-Jun-25 16:31N 35°21' E 139°41'0 0.0
2015-Jun-25 15:31N 35°21' E 139°41'0 0.0
2015-Jun-25 14:31N 35°21' E 139°41'0 0.0
2015-Jun-25 13:31N 35°21' E 139°41'0 0.1
2015-Jun-25 12:31N 35°21' E 139°41'0 0.0
2015-Jun-25 11:31N 35°21' E 139°41'0 0.0
2015-Jun-25 10:31N 35°21' E 139°41'0 0.0
2015-Jun-25 09:31N 35°21' E 139°41'0 0.0
2015-Jun-25 08:31N 35°21' E 139°41'0 0.0
2015-Jun-25 07:31N 35°21' E 139°41'0 0.0
2015-Jun-25 06:28N 35°21' E 139°41'0 0.1
2015-Jun-25 05:28N 35°21' E 139°41'0 0.0
2015-Jun-25 04:31N 35°21' E 139°41'0 0.0
2015-Jun-25 03:31N 35°21' E 139°41'0 0.0
2015-Jun-25 02:31N 35°21' E 139°41'0 0.0
2015-Jun-25 01:31N 35°21' E 139°41'0 0.1
2015-Jun-25 00:31N 35°21' E 139°41'0 0.0
2015-Jun-24 23:31N 35°21' E 139°41'0 0.0
2015-Jun-24 22:31N 35°21' E 139°41'0 0.0
2015-Jun-24 21:31N 35°21' E 139°41'0 0.0
2015-Jun-24 20:31N 35°21' E 139°41'0 0.0
2015-Jun-24 19:31N 35°21' E 139°41'0 0.0
2015-Jun-24 18:33N 35°21' E 139°41'10 9.9
2015-Jun-24 17:33N 35°12' E 139°47'1212.2
2015-Jun-24 16:33N 35°00' E 139°43'1211.4
2015-Jun-24 15:31N 34°50' E 139°49'1211.1
2015-Jun-24 14:25N 34°38' E 139°55'47 1.1
2015-Jun-22 19:33N 35°23' E 139°39'0 0.0
2015-Jun-22 18:33N 35°23' E 139°39'0 0.0
2015-Jun-22 17:33N 35°23' E 139°39'0 0.0
2015-Jun-22 16:27N 35°23' E 139°39'0 0.0
2015-Jun-22 15:33N 35°23' E 139°39'  

Dump ship's entire track history